CPA6666 VTBS-VHHX
Flight info
| Callsign | CPA6666 |
|---|---|
| Flight time | N/A |
| Altitude | 37000 |
| Route | SELKA1E SELKA A1 SANOT Y15 GUROK A202 VILAO/K0906F370 A202 ASSAD/K0906S1130 A202 SIKOU/N0489F371 |
| Aircraft | B77W/H-SDE1E2E3FGHIJ2J3J4J5M1RWXY/LB1D1 |
Departure
| Time | 2026-05-05 14:37 |
|---|---|
| Airport | Suvarnabhumi Airport (VTBS) |
Arrival
| Time | N/A |
|---|---|
| Airport | Hong Kong International Airport Kai Tak (VHHX) |
| Time | Latitude | Longitude | Altitude | Speed | Heading |
|---|---|---|---|---|---|
| 2026-05-05 14:35 | 13.67181 | 100.75595 | 17 ft | 0 kts | 15° |
| 2026-05-05 14:36 | 13.67343 | 100.75627 | 17 ft | 66 kts | 11° |
| 2026-05-05 14:37 | 13.68455 | 100.75914 | 18 ft | 171 kts | 19° |
| 2026-05-05 14:37 | 13.69286 | 100.76176 | 186 ft | 198 kts | 17° |
| 2026-05-05 14:37 | 13.70622 | 100.76583 | 921 ft | 204 kts | 18° |
| 2026-05-05 14:37 | 13.71995 | 100.76989 | 1665 ft | 211 kts | 18° |
| 2026-05-05 14:38 | 13.73452 | 100.77402 | 2431 ft | 217 kts | 18° |
| 2026-05-05 14:38 | 13.74888 | 100.77798 | 3163 ft | 214 kts | 17° |
| 2026-05-05 14:38 | 13.76345 | 100.77949 | 3867 ft | 215 kts | 351° |
| 2026-05-05 14:38 | 13.77802 | 100.77610 | 4431 ft | 220 kts | 356° |
| 2026-05-05 14:39 | 13.79301 | 100.78031 | 4756 ft | 231 kts | 38° |
| 2026-05-05 14:39 | 13.80217 | 100.79425 | 5057 ft | 250 kts | 78° |
| 2026-05-05 14:39 | 13.80424 | 100.81247 | 5499 ft | 266 kts | 83° |
| 2026-05-05 14:39 | 13.80762 | 100.83126 | 6166 ft | 272 kts | 76° |
| 2026-05-05 14:40 | 13.81310 | 100.84981 | 6907 ft | 275 kts | 71° |
| 2026-05-05 14:40 | 13.82006 | 100.86830 | 7641 ft | 279 kts | 68° |
| 2026-05-05 14:40 | 13.82792 | 100.88657 | 8353 ft | 281 kts | 65° |
| 2026-05-05 14:40 | 13.83632 | 100.90469 | 9031 ft | 285 kts | 64° |
| 2026-05-05 14:41 | 13.84514 | 100.92288 | 9678 ft | 288 kts | 64° |
| 2026-05-05 14:41 | 13.85432 | 100.94133 | 10286 ft | 293 kts | 63° |
| 2026-05-05 14:41 | 13.86399 | 100.96049 | 10614 ft | 310 kts | 63° |
| 2026-05-05 14:41 | 13.87429 | 100.98071 | 10912 ft | 327 kts | 63° |
| 2026-05-05 14:42 | 13.88505 | 101.00173 | 11207 ft | 344 kts | 63° |
| 2026-05-05 14:42 | 13.89659 | 101.02419 | 11486 ft | 361 kts | 63° |
| 2026-05-05 14:42 | 13.91281 | 101.05573 | 11917 ft | 381 kts | 63° |
| 2026-05-05 14:42 | 13.92101 | 101.07166 | 12282 ft | 385 kts | 63° |
| 2026-05-05 14:43 | 13.93361 | 101.09612 | 12948 ft | 389 kts | 63° |
| 2026-05-05 14:43 | 13.94630 | 101.12076 | 13625 ft | 392 kts | 63° |
| 2026-05-05 14:43 | 13.95909 | 101.14560 | 14263 ft | 395 kts | 63° |
| 2026-05-05 14:43 | 13.97199 | 101.17068 | 14906 ft | 398 kts | 63° |
| 2026-05-05 14:44 | 13.98496 | 101.19588 | 15516 ft | 402 kts | 63° |
| 2026-05-05 14:44 | 13.99806 | 101.22132 | 16115 ft | 405 kts | 63° |
| 2026-05-05 14:44 | 14.01132 | 101.24711 | 16713 ft | 408 kts | 63° |
| 2026-05-05 14:44 | 14.02452 | 101.27277 | 17288 ft | 411 kts | 63° |
| 2026-05-05 14:45 | 14.03798 | 101.29897 | 17834 ft | 414 kts | 62° |
| 2026-05-05 14:45 | 14.05150 | 101.32530 | 18360 ft | 418 kts | 62° |
| 2026-05-05 14:45 | 14.06502 | 101.35162 | 18869 ft | 422 kts | 62° |
| 2026-05-05 14:45 | 14.07891 | 101.37867 | 19364 ft | 426 kts | 62° |
| 2026-05-05 14:46 | 14.09271 | 101.40554 | 19829 ft | 429 kts | 62° |
| 2026-05-05 14:46 | 14.10674 | 101.43289 | 20294 ft | 433 kts | 62° |
| 2026-05-05 14:46 | 14.12085 | 101.46037 | 20735 ft | 437 kts | 62° |
| 2026-05-05 14:46 | 14.13498 | 101.48792 | 21175 ft | 441 kts | 62° |
| 2026-05-05 14:47 | 14.14950 | 101.51624 | 21605 ft | 445 kts | 62° |